sensor_id;sensor_type;location;lat;lon;timestamp;pressure;altitude;pressure_sealevel;temperature;humidity
54806;BME280;62866;55.776;37.496;2023-07-28T00:02:17;98244.09;;;20.72;100.00
54806;BME280;62866;55.776;37.496;2023-07-28T00:04:43;98251.72;;;20.70;100.00
54806;BME280;62866;55.776;37.496;2023-07-28T00:07:08;98239.34;;;20.59;100.00
54806;BME280;62866;55.776;37.496;2023-07-28T00:09:34;98255.31;;;20.66;100.00
54806;BME280;62866;55.776;37.496;2023-07-28T00:12:00;98276.16;;;20.70;100.00
54806;BME280;62866;55.776;37.496;2023-07-28T00:14:27;98291.06;;;20.73;100.00
54806;BME280;62866;55.776;37.496;2023-07-28T00:16:57;98308.72;;;20.75;100.00
54806;BME280;62866;55.776;37.496;2023-07-28T00:19:23;98298.94;;;20.74;100.00
54806;BME280;62866;55.776;37.496;2023-07-28T00:21:49;98294.31;;;20.75;100.00
54806;BME280;62866;55.776;37.496;2023-07-28T00:24:15;98298.63;;;20.76;100.00
54806;BME280;62866;55.776;37.496;2023-07-28T00:26:41;98312.00;;;20.72;100.00
54806;BME280;62866;55.776;37.496;2023-07-28T00:29:07;98313.91;;;20.72;100.00
54806;BME280;62866;55.776;37.496;2023-07-28T00:31:33;98319.63;;;20.70;100.00
54806;BME280;62866;55.776;37.496;2023-07-28T00:33:59;98325.06;;;20.70;100.00
54806;BME280;62866;55.776;37.496;2023-07-28T00:36:25;98321.81;;;20.68;100.00
54806;BME280;62866;55.776;37.496;2023-07-28T00:38:51;98317.00;;;20.60;100.00
54806;BME280;62866;55.776;37.496;2023-07-28T00:41:16;98321.34;;;20.61;100.00
54806;BME280;62866;55.776;37.496;2023-07-28T00:43:42;98316.53;;;20.58;100.00
54806;BME280;62866;55.776;37.496;2023-07-28T00:46:08;98309.75;;;20.56;100.00
54806;BME280;62866;55.776;37.496;2023-07-28T00:48:34;98296.22;;;20.51;100.00
54806;BME280;62866;55.776;37.496;2023-07-28T00:50:59;98281.16;;;20.39;100.00
54806;BME280;62866;55.776;37.496;2023-07-28T00:53:25;98293.91;;;20.39;100.00
54806;BME280;62866;55.776;37.496;2023-07-28T00:55:51;98299.34;;;20.39;100.00
54806;BME280;62866;55.776;37.496;2023-07-28T00:58:17;98288.81;;;20.32;100.00
54806;BME280;62866;55.776;37.496;2023-07-28T01:00:43;98289.06;;;20.36;100.00
54806;BME280;62866;55.776;37.496;2023-07-28T01:03:08;98291.78;;;20.36;100.00
54806;BME280;62866;55.776;37.496;2023-07-28T01:08:32;98283.38;;;20.32;100.00
54806;BME280;62866;55.776;37.496;2023-07-28T01:10:59;98283.94;;;20.29;100.00
54806;BME280;62866;55.776;37.496;2023-07-28T01:13:25;98284.22;;;20.28;100.00
54806;BME280;62866;55.776;37.496;2023-07-28T01:15:50;98277.25;;;20.22;100.00
54806;BME280;62866;55.776;37.496;2023-07-28T01:18:16;98283.78;;;20.21;100.00
54806;BME280;62866;55.776;37.496;2023-07-28T01:20:42;98265.94;;;20.15;100.00
54806;BME280;62866;55.776;37.496;2023-07-28T01:23:20;98276.19;;;20.18;100.00
54806;BME280;62866;55.776;37.496;2023-07-28T01:28:27;98263.78;;;20.12;100.00
54806;BME280;62866;55.776;37.496;2023-07-28T01:30:52;98257.19;;;20.18;100.00
54806;BME280;62866;55.776;37.496;2023-07-28T01:33:18;98255.63;;;20.12;100.00
54806;BME280;62866;55.776;37.496;2023-07-28T01:35:44;98251.56;;;20.14;100.00
54806;BME280;62866;55.776;37.496;2023-07-28T01:38:09;98256.97;;;20.14;100.00
54806;BME280;62866;55.776;37.496;2023-07-28T01:40:35;98258.31;;;20.17;100.00
54806;BME280;62866;55.776;37.496;2023-07-28T01:43:00;98239.88;;;20.14;100.00
54806;BME280;62866;55.776;37.496;2023-07-28T01:45:26;98248.25;;;20.17;100.00
54806;BME280;62866;55.776;37.496;2023-07-28T01:47:51;98233.38;;;20.15;100.00
54806;BME280;62866;55.776;37.496;2023-07-28T01:50:17;98239.25;;;20.22;100.00
54806;BME280;62866;55.776;37.496;2023-07-28T01:52:42;98214.94;;;20.12;100.00
54806;BME280;62866;55.776;37.496;2023-07-28T01:55:08;98242.78;;;20.22;100.00
54806;BME280;62866;55.776;37.496;2023-07-28T01:57:34;98234.84;;;20.26;100.00
54806;BME280;62866;55.776;37.496;2023-07-28T02:00:00;98230.81;;;20.23;100.00
54806;BME280;62866;55.776;37.496;2023-07-28T02:02:25;98238.69;;;20.25;100.00
54806;BME280;62866;55.776;37.496;2023-07-28T02:04:51;98236.81;;;20.20;100.00
54806;BME280;62866;55.776;37.496;2023-07-28T02:07:16;98218.19;;;20.14;100.00
54806;BME280;62866;55.776;37.496;2023-07-28T02:09:42;98220.59;;;20.15;100.00
54806;BME280;62866;55.776;37.496;2023-07-28T02:12:07;98238.16;;;20.23;100.00
54806;BME280;62866;55.776;37.496;2023-07-28T02:14:33;98245.22;;;20.24;100.00
54806;BME280;62866;55.776;37.496;2023-07-28T02:16:58;98246.47;;;20.31;100.00
54806;BME280;62866;55.776;37.496;2023-07-28T02:19:25;98219.09;;;20.28;100.00
54806;BME280;62866;55.776;37.496;2023-07-28T02:21:50;98221.72;;;20.38;100.00
54806;BME280;62866;55.776;37.496;2023-07-28T02:24:16;98221.38;;;20.44;100.00
54806;BME280;62866;55.776;37.496;2023-07-28T02:26:41;98234.66;;;20.46;100.00
54806;BME280;62866;55.776;37.496;2023-07-28T02:29:07;98208.47;;;20.31;100.00
54806;BME280;62866;55.776;37.496;2023-07-28T02:31:32;98227.31;;;20.47;100.00
54806;BME280;62866;55.776;37.496;2023-07-28T02:33:58;98231.13;;;20.45;100.00
54806;BME280;62866;55.776;37.496;2023-07-28T02:36:23;98236.72;;;20.54;100.00
54806;BME280;62866;55.776;37.496;2023-07-28T02:38:49;98241.78;;;20.61;100.00
54806;BME280;62866;55.776;37.496;2023-07-28T02:41:14;98261.84;;;20.65;100.00
54806;BME280;62866;55.776;37.496;2023-07-28T02:43:40;98259.66;;;20.67;100.00
54806;BME280;62866;55.776;37.496;2023-07-28T02:46:06;98248.63;;;20.58;100.00
54806;BME280;62866;55.776;37.496;2023-07-28T02:48:32;98270.97;;;20.74;100.00
54806;BME280;62866;55.776;37.496;2023-07-28T02:50:57;98285.66;;;20.73;100.00
54806;BME280;62866;55.776;37.496;2023-07-28T02:53:23;98297.53;;;20.77;100.00
54806;BME280;62866;55.776;37.496;2023-07-28T02:55:49;98291.88;;;20.73;100.00
54806;BME280;62866;55.776;37.496;2023-07-28T02:58:15;98283.75;;;20.73;100.00
54806;BME280;62866;55.776;37.496;2023-07-28T03:00:41;98291.59;;;20.75;100.00
54806;BME280;62866;55.776;37.496;2023-07-28T03:03:08;98288.56;;;20.76;100.00
54806;BME280;62866;55.776;37.496;2023-07-28T03:05:36;98281.31;;;20.72;100.00
54806;BME280;62866;55.776;37.496;2023-07-28T03:08:01;98250.88;;;20.75;100.00
54806;BME280;62866;55.776;37.496;2023-07-28T03:10:27;98239.69;;;20.76;100.00
54806;BME280;62866;55.776;37.496;2023-07-28T03:12:53;98247.25;;;20.79;100.00
54806;BME280;62866;55.776;37.496;2023-07-28T03:15:18;98243.84;;;20.69;100.00
54806;BME280;62866;55.776;37.496;2023-07-28T03:17:45;98291.16;;;20.87;100.00
54806;BME280;62866;55.776;37.496;2023-07-28T03:20:10;98318.56;;;20.90;99.70
54806;BME280;62866;55.776;37.496;2023-07-28T03:22:36;98321.50;;;20.94;99.65
54806;BME280;62866;55.776;37.496;2023-07-28T03:25:02;98333.13;;;20.99;99.52
54806;BME280;62866;55.776;37.496;2023-07-28T03:27:28;98337.09;;;21.07;99.50
54806;BME280;62866;55.776;37.496;2023-07-28T03:29:53;98295.66;;;20.96;99.07
54806;BME280;62866;55.776;37.496;2023-07-28T03:32:19;98299.63;;;21.04;99.19
54806;BME280;62866;55.776;37.496;2023-07-28T03:34:44;98287.28;;;21.11;99.05
54806;BME280;62866;55.776;37.496;2023-07-28T03:37:10;98321.13;;;21.24;98.75
54806;BME280;62866;55.776;37.496;2023-07-28T03:39:35;98315.09;;;21.27;98.18
54806;BME280;62866;55.776;37.496;2023-07-28T03:42:01;98334.28;;;21.36;97.51
54806;BME280;62866;55.776;37.496;2023-07-28T03:44:27;98352.28;;;21.32;97.36
54806;BME280;62866;55.776;37.496;2023-07-28T03:46:52;98401.00;;;21.28;97.44
54806;BME280;62866;55.776;37.496;2023-07-28T03:49:18;98427.75;;;21.16;97.67
54806;BME280;62866;55.776;37.496;2023-07-28T03:51:43;98449.63;;;21.06;98.04
54806;BME280;62866;55.776;37.496;2023-07-28T03:54:09;98493.94;;;21.01;98.30
54806;BME280;62866;55.776;37.496;2023-07-28T03:56:34;98512.84;;;20.88;98.33
54806;BME280;62866;55.776;37.496;2023-07-28T03:59:00;98468.78;;;20.67;98.89
54806;BME280;62866;55.776;37.496;2023-07-28T04:01:25;98467.16;;;20.32;99.23
54806;BME280;62866;55.776;37.496;2023-07-28T04:03:51;98442.84;;;20.17;100.00
54806;BME280;62866;55.776;37.496;2023-07-28T04:06:16;98420.97;;;20.03;100.00
54806;BME280;62866;55.776;37.496;2023-07-28T04:08:42;98397.75;;;19.87;100.00
54806;BME280;62866;55.776;37.496;2023-07-28T04:11:08;98356.38;;;19.71;100.00
54806;BME280;62866;55.776;37.496;2023-07-28T04:13:36;98266.34;;;19.69;100.00
54806;BME280;62866;55.776;37.496;2023-07-28T04:16:02;98206.78;;;19.59;100.00
54806;BME280;62866;55.776;37.496;2023-07-28T04:18:27;98161.03;;;19.52;100.00
54806;BME280;62866;55.776;37.496;2023-07-28T04:20:53;98166.53;;;19.47;100.00
54806;BME280;62866;55.776;37.496;2023-07-28T04:23:18;98156.56;;;19.38;100.00
54806;BME280;62866;55.776;37.496;2023-07-28T04:25:44;98129.00;;;19.25;100.00
54806;BME280;62866;55.776;37.496;2023-07-28T04:28:10;98132.22;;;19.32;100.00
54806;BME280;62866;55.776;37.496;2023-07-28T04:30:35;98153.13;;;19.27;100.00
54806;BME280;62866;55.776;37.496;2023-07-28T04:33:01;98170.09;;;19.38;100.00
54806;BME280;62866;55.776;37.496;2023-07-28T04:35:26;98150.84;;;19.39;100.00
54806;BME280;62866;55.776;37.496;2023-07-28T04:37:52;98156.50;;;19.48;100.00
54806;BME280;62866;55.776;37.496;2023-07-28T04:40:19;98163.53;;;19.49;100.00
54806;BME280;62866;55.776;37.496;2023-07-28T04:42:44;98190.59;;;19.54;100.00
54806;BME280;62866;55.776;37.496;2023-07-28T04:45:10;98202.50;;;19.58;100.00
54806;BME280;62866;55.776;37.496;2023-07-28T04:47:35;98196.75;;;19.59;100.00
54806;BME280;62866;55.776;37.496;2023-07-28T04:50:01;98195.09;;;19.63;100.00
54806;BME280;62866;55.776;37.496;2023-07-28T04:52:27;98190.78;;;19.62;100.00
54806;BME280;62866;55.776;37.496;2023-07-28T04:54:52;98205.59;;;19.70;100.00
54806;BME280;62866;55.776;37.496;2023-07-28T04:57:18;98217.50;;;19.74;100.00
54806;BME280;62866;55.776;37.496;2023-07-28T04:59:44;98214.28;;;19.72;100.00
54806;BME280;62866;55.776;37.496;2023-07-28T05:02:10;98226.13;;;19.81;100.00
54806;BME280;62866;55.776;37.496;2023-07-28T05:04:36;98226.03;;;19.91;100.00
54806;BME280;62866;55.776;37.496;2023-07-28T05:07:03;98244.56;;;20.08;100.00
54806;BME280;62866;55.776;37.496;2023-07-28T05:09:28;98239.25;;;20.22;100.00
54806;BME280;62866;55.776;37.496;2023-07-28T05:11:54;98213.91;;;20.31;100.00
54806;BME280;62866;55.776;37.496;2023-07-28T05:14:20;98242.75;;;20.70;100.00
54806;BME280;62866;55.776;37.496;2023-07-28T05:16:45;98256.66;;;20.87;100.00
54806;BME280;62866;55.776;37.496;2023-07-28T05:19:12;98256.38;;;20.89;100.00
54806;BME280;62866;55.776;37.496;2023-07-28T05:21:38;98261.81;;;20.89;100.00
54806;BME280;62866;55.776;37.496;2023-07-28T05:24:04;98273.41;;;20.75;100.00
54806;BME280;62866;55.776;37.496;2023-07-28T05:26:29;98260.44;;;20.67;100.00
54806;BME280;62866;55.776;37.496;2023-07-28T05:28:55;98249.72;;;20.57;100.00
54806;BME280;62866;55.776;37.496;2023-07-28T05:31:20;98266.03;;;20.76;100.00
54806;BME280;62866;55.776;37.496;2023-07-28T05:33:46;98259.44;;;20.82;100.00
54806;BME280;62866;55.776;37.496;2023-07-28T05:36:11;98266.72;;;20.87;100.00
54806;BME280;62866;55.776;37.496;2023-07-28T05:38:37;98261.06;;;21.02;100.00
54806;BME280;62866;55.776;37.496;2023-07-28T05:41:03;98257.44;;;21.30;100.00
54806;BME280;62866;55.776;37.496;2023-07-28T05:43:30;98228.84;;;21.33;100.00
54806;BME280;62866;55.776;37.496;2023-07-28T05:45:59;98251.06;;;21.53;100.00
54806;BME280;62866;55.776;37.496;2023-07-28T05:48:26;98254.06;;;21.52;100.00
54806;BME280;62866;55.776;37.496;2023-07-28T05:50:51;98265.69;;;21.57;98.65
54806;BME280;62866;55.776;37.496;2023-07-28T05:53:19;98259.88;;;21.64;98.58
54806;BME280;62866;55.776;37.496;2023-07-28T05:55:49;98253.47;;;21.74;96.89
54806;BME280;62866;55.776;37.496;2023-07-28T05:58:14;98262.72;;;21.73;94.62
54806;BME280;62866;55.776;37.496;2023-07-28T06:00:40;98248.59;;;21.71;94.32
54806;BME280;62866;55.776;37.496;2023-07-28T06:03:12;98257.31;;;21.86;94.25
54806;BME280;62866;55.776;37.496;2023-07-28T06:05:40;98249.41;;;22.04;92.46
54806;BME280;62866;55.776;37.496;2023-07-28T06:08:06;98237.72;;;22.03;90.86
54806;BME280;62866;55.776;37.496;2023-07-28T06:10:32;98264.22;;;22.11;90.49
54806;BME280;62866;55.776;37.496;2023-07-28T06:12:58;98282.16;;;21.99;91.11
54806;BME280;62866;55.776;37.496;2023-07-28T06:15:23;98291.25;;;21.75;91.71
54806;BME280;62866;55.776;37.496;2023-07-28T06:17:49;98285.75;;;21.62;92.13
54806;BME280;62866;55.776;37.496;2023-07-28T06:20:14;98258.38;;;21.39;92.96
54806;BME280;62866;55.776;37.496;2023-07-28T06:22:40;98267.63;;;21.38;93.93
54806;BME280;62866;55.776;37.496;2023-07-28T06:25:06;98249.13;;;21.40;94.66
54806;BME280;62866;55.776;37.496;2023-07-28T06:27:32;98262.84;;;21.49;95.09
54806;BME280;62866;55.776;37.496;2023-07-28T06:29:58;98281.06;;;21.67;95.10
54806;BME280;62866;55.776;37.496;2023-07-28T06:32:23;98284.63;;;21.81;94.99
54806;BME280;62866;55.776;37.496;2023-07-28T06:34:49;98292.69;;;21.86;94.85
54806;BME280;62866;55.776;37.496;2023-07-28T06:37:15;98334.91;;;21.84;94.24
54806;BME280;62866;55.776;37.496;2023-07-28T06:39:41;98389.19;;;21.56;94.36
54806;BME280;62866;55.776;37.496;2023-07-28T06:42:07;98418.78;;;21.15;95.40
54806;BME280;62866;55.776;37.496;2023-07-28T06:44:33;98384.16;;;20.78;97.19
54806;BME280;62866;55.776;37.496;2023-07-28T06:46:58;98416.94;;;20.63;98.34
54806;BME280;62866;55.776;37.496;2023-07-28T06:49:24;98455.38;;;20.47;99.54
54806;BME280;62866;55.776;37.496;2023-07-28T06:51:49;98536.66;;;20.28;100.00
54806;BME280;62866;55.776;37.496;2023-07-28T06:54:15;98536.00;;;20.07;100.00
54806;BME280;62866;55.776;37.496;2023-07-28T06:56:40;98545.81;;;19.93;100.00
54806;BME280;62866;55.776;37.496;2023-07-28T06:59:07;98524.97;;;19.88;100.00
54806;BME280;62866;55.776;37.496;2023-07-28T07:01:33;98475.09;;;19.79;100.00
54806;BME280;62866;55.776;37.496;2023-07-28T07:03:59;98453.50;;;19.64;100.00
54806;BME280;62866;55.776;37.496;2023-07-28T07:06:25;98434.25;;;19.60;100.00
54806;BME280;62866;55.776;37.496;2023-07-28T07:08:50;98422.69;;;19.50;100.00
54806;BME280;62866;55.776;37.496;2023-07-28T07:11:16;98416.13;;;19.51;100.00
54806;BME280;62866;55.776;37.496;2023-07-28T07:13:41;98393.63;;;19.55;100.00
54806;BME280;62866;55.776;37.496;2023-07-28T07:16:17;98359.78;;;19.48;100.00
54806;BME280;62866;55.776;37.496;2023-07-28T07:18:43;98350.56;;;19.49;100.00
54806;BME280;62866;55.776;37.496;2023-07-28T07:21:09;98311.75;;;19.53;100.00
54806;BME280;62866;55.776;37.496;2023-07-28T07:23:36;98297.97;;;19.50;100.00
54806;BME280;62866;55.776;37.496;2023-07-28T07:26:02;98351.34;;;19.54;100.00
54806;BME280;62866;55.776;37.496;2023-07-28T07:28:27;98335.94;;;19.50;100.00
54806;BME280;62866;55.776;37.496;2023-07-28T07:30:54;98333.22;;;19.45;100.00
54806;BME280;62866;55.776;37.496;2023-07-28T07:33:20;98322.59;;;19.53;100.00
54806;BME280;62866;55.776;37.496;2023-07-28T07:35:45;98297.94;;;19.55;100.00
54806;BME280;62866;55.776;37.496;2023-07-28T07:38:11;98309.81;;;19.59;100.00
54806;BME280;62866;55.776;37.496;2023-07-28T07:40:36;98309.88;;;19.54;100.00
54806;BME280;62866;55.776;37.496;2023-07-28T07:43:03;98345.00;;;19.69;100.00
54806;BME280;62866;55.776;37.496;2023-07-28T07:45:29;98357.31;;;19.46;100.00
54806;BME280;62866;55.776;37.496;2023-07-28T07:47:55;98372.75;;;19.51;100.00
54806;BME280;62866;55.776;37.496;2023-07-28T07:50:21;98352.97;;;19.50;100.00
54806;BME280;62866;55.776;37.496;2023-07-28T07:52:47;98368.09;;;19.61;100.00
54806;BME280;62866;55.776;37.496;2023-07-28T07:55:12;98363.91;;;19.79;100.00
54806;BME280;62866;55.776;37.496;2023-07-28T07:57:38;98372.50;;;19.91;100.00
54806;BME280;62866;55.776;37.496;2023-07-28T08:00:04;98376.25;;;19.95;100.00
54806;BME280;62866;55.776;37.496;2023-07-28T08:02:30;98375.69;;;19.98;100.00
54806;BME280;62866;55.776;37.496;2023-07-28T08:04:56;98369.59;;;20.12;100.00
54806;BME280;62866;55.776;37.496;2023-07-28T08:07:21;98368.19;;;20.19;100.00
54806;BME280;62866;55.776;37.496;2023-07-28T08:09:48;98365.06;;;20.36;100.00
54806;BME280;62866;55.776;37.496;2023-07-28T08:12:14;98372.22;;;20.79;100.00
54806;BME280;62866;55.776;37.496;2023-07-28T08:14:40;98374.31;;;21.30;100.00
54806;BME280;62866;55.776;37.496;2023-07-28T08:17:05;98368.97;;;21.81;100.00
54806;BME280;62866;55.776;37.496;2023-07-28T08:19:31;98371.25;;;22.85;100.00
54806;BME280;62866;55.776;37.496;2023-07-28T08:21:56;98382.53;;;24.05;100.00
54806;BME280;62866;55.776;37.496;2023-07-28T08:24:22;98363.78;;;25.05;97.36
54806;BME280;62866;55.776;37.496;2023-07-28T08:26:47;98356.59;;;26.85;93.88
54806;BME280;62866;55.776;37.496;2023-07-28T08:29:14;98359.19;;;28.23;87.70
54806;BME280;62866;55.776;37.496;2023-07-28T08:31:40;98342.13;;;28.99;84.37
54806;BME280;62866;55.776;37.496;2023-07-28T08:34:07;98363.13;;;28.35;84.18
54806;BME280;62866;55.776;37.496;2023-07-28T08:36:33;98382.59;;;27.88;82.20
54806;BME280;62866;55.776;37.496;2023-07-28T08:38:59;98385.13;;;27.22;83.42
54806;BME280;62866;55.776;37.496;2023-07-28T08:41:25;98397.69;;;26.38;84.02
54806;BME280;62866;55.776;37.496;2023-07-28T08:43:50;98395.47;;;26.06;84.68
54806;BME280;62866;55.776;37.496;2023-07-28T08:46:17;98406.41;;;25.63;86.34
54806;BME280;62866;55.776;37.496;2023-07-28T08:48:43;98406.06;;;24.99;87.33
54806;BME280;62866;55.776;37.496;2023-07-28T08:51:10;98405.66;;;24.52;88.37
54806;BME280;62866;55.776;37.496;2023-07-28T08:53:37;98412.75;;;24.09;90.14
54806;BME280;62866;55.776;37.496;2023-07-28T08:56:03;98410.19;;;23.90;90.38
54806;BME280;62866;55.776;37.496;2023-07-28T08:58:29;98407.53;;;23.76;91.12
54806;BME280;62866;55.776;37.496;2023-07-28T09:00:55;98387.75;;;23.43;91.41
54806;BME280;62866;55.776;37.496;2023-07-28T09:03:21;98411.81;;;23.28;92.37
54806;BME280;62866;55.776;37.496;2023-07-28T09:05:48;98414.69;;;23.09;93.64
54806;BME280;62866;55.776;37.496;2023-07-28T09:08:15;98404.16;;;23.02;94.06
54806;BME280;62866;55.776;37.496;2023-07-28T09:10:49;98414.84;;;23.13;93.81
54806;BME280;62866;55.776;37.496;2023-07-28T09:13:16;98423.13;;;23.21;93.82
54806;BME280;62866;55.776;37.496;2023-07-28T09:15:42;98431.50;;;23.38;93.90
54806;BME280;62866;55.776;37.496;2023-07-28T09:18:12;98425.31;;;23.46;93.37
54806;BME280;62866;55.776;37.496;2023-07-28T09:20:39;98434.25;;;23.25;93.73
54806;BME280;62866;55.776;37.496;2023-07-28T09:23:07;98442.31;;;23.02;93.70
54806;BME280;62866;55.776;37.496;2023-07-28T09:25:35;98443.97;;;22.71;94.52
54806;BME280;62866;55.776;37.496;2023-07-28T09:28:01;98464.19;;;22.51;95.40
54806;BME280;62866;55.776;37.496;2023-07-28T09:30:27;98474.25;;;22.37;95.75
54806;BME280;62866;55.776;37.496;2023-07-28T09:32:55;98473.44;;;22.18;96.22
54806;BME280;62866;55.776;37.496;2023-07-28T09:35:21;98486.72;;;22.06;96.54
54806;BME280;62866;55.776;37.496;2023-07-28T09:37:50;98512.44;;;21.94;97.03
54806;BME280;62866;55.776;37.496;2023-07-28T09:40:19;98507.00;;;21.76;97.55
54806;BME280;62866;55.776;37.496;2023-07-28T09:42:46;98505.03;;;21.76;97.66
54806;BME280;62866;55.776;37.496;2023-07-28T09:45:18;98495.88;;;21.72;97.78
54806;BME280;62866;55.776;37.496;2023-07-28T09:47:47;98491.44;;;21.57;98.12
54806;BME280;62866;55.776;37.496;2023-07-28T09:50:18;98474.69;;;21.50;98.37
54806;BME280;62866;55.776;37.496;2023-07-28T09:52:50;98459.38;;;21.54;98.19
54806;BME280;62866;55.776;37.496;2023-07-28T09:55:18;98466.72;;;21.54;98.72
54806;BME280;62866;55.776;37.496;2023-07-28T09:57:54;98494.66;;;21.59;98.99
54806;BME280;62866;55.776;37.496;2023-07-28T10:00:21;98498.19;;;21.60;99.04
54806;BME280;62866;55.776;37.496;2023-07-28T10:02:48;98497.38;;;21.59;99.07
54806;BME280;62866;55.776;37.496;2023-07-28T10:05:14;98489.53;;;21.58;99.58
54806;BME280;62866;55.776;37.496;2023-07-28T10:07:43;98483.56;;;21.56;99.69
54806;BME280;62866;55.776;37.496;2023-07-28T10:10:11;98471.44;;;21.48;99.81
54806;BME280;62866;55.776;37.496;2023-07-28T10:15:15;98485.75;;;21.54;100.00
54806;BME280;62866;55.776;37.496;2023-07-28T10:17:54;98512.09;;;21.58;100.00
54806;BME280;62866;55.776;37.496;2023-07-28T10:20:35;98527.28;;;21.59;99.91
54806;BME280;62866;55.776;37.496;2023-07-28T10:23:09;98522.50;;;21.51;100.00
54806;BME280;62866;55.776;37.496;2023-07-28T10:25:37;98500.53;;;21.48;100.00
54806;BME280;62866;55.776;37.496;2023-07-28T10:28:04;98491.63;;;21.42;100.00
54806;BME280;62866;55.776;37.496;2023-07-28T10:30:51;98481.63;;;21.38;100.00
54806;BME280;62866;55.776;37.496;2023-07-28T10:33:31;98478.66;;;21.34;100.00
54806;BME280;62866;55.776;37.496;2023-07-28T10:35:58;98471.09;;;21.31;100.00
54806;BME280;62866;55.776;37.496;2023-07-28T10:38:34;98470.56;;;21.29;100.00
54806;BME280;62866;55.776;37.496;2023-07-28T10:43:31;98410.31;;;21.22;100.00
54806;BME280;62866;55.776;37.496;2023-07-28T10:45:56;98427.97;;;21.25;100.00
54806;BME280;62866;55.776;37.496;2023-07-28T10:48:23;98435.31;;;21.24;100.00
54806;BME280;62866;55.776;37.496;2023-07-28T10:50:49;98420.91;;;21.24;100.00
54806;BME280;62866;55.776;37.496;2023-07-28T10:53:15;98425.81;;;21.22;100.00
54806;BME280;62866;55.776;37.496;2023-07-28T10:55:41;98430.44;;;21.21;100.00
54806;BME280;62866;55.776;37.496;2023-07-28T10:58:06;98464.75;;;21.17;100.00
54806;BME280;62866;55.776;37.496;2023-07-28T11:00:32;98451.91;;;20.94;100.00
54806;BME280;62866;55.776;37.496;2023-07-28T11:02:57;98433.22;;;20.92;100.00
54806;BME280;62866;55.776;37.496;2023-07-28T11:05:24;98436.66;;;20.98;100.00
54806;BME280;62866;55.776;37.496;2023-07-28T11:08:01;98412.59;;;21.10;100.00
54806;BME280;62866;55.776;37.496;2023-07-28T11:10:31;98417.59;;;21.27;100.00
54806;BME280;62866;55.776;37.496;2023-07-28T11:12:59;98416.53;;;21.46;100.00
54806;BME280;62866;55.776;37.496;2023-07-28T11:15:25;98362.84;;;21.52;100.00
54806;BME280;62866;55.776;37.496;2023-07-28T11:17:52;98394.41;;;21.72;100.00
54806;BME280;62866;55.776;37.496;2023-07-28T11:20:21;98397.03;;;21.77;99.57
54806;BME280;62866;55.776;37.496;2023-07-28T11:23:03;98400.88;;;21.76;99.13
54806;BME280;62866;55.776;37.496;2023-07-28T11:25:31;98425.72;;;21.69;99.26
54806;BME280;62866;55.776;37.496;2023-07-28T11:27:57;98463.88;;;21.64;99.47
54806;BME280;62866;55.776;37.496;2023-07-28T11:30:23;98464.16;;;21.63;99.44
54806;BME280;62866;55.776;37.496;2023-07-28T11:32:52;98473.41;;;21.62;99.44
54806;BME280;62866;55.776;37.496;2023-07-28T11:35:20;98483.28;;;21.57;99.28
54806;BME280;62866;55.776;37.496;2023-07-28T11:37:49;98508.50;;;21.63;99.88
54806;BME280;62866;55.776;37.496;2023-07-28T11:40:19;98497.97;;;21.56;99.77
54806;BME280;62866;55.776;37.496;2023-07-28T11:42:47;98512.16;;;21.53;99.79
54806;BME280;62866;55.776;37.496;2023-07-28T11:45:15;98513.69;;;21.41;99.29
54806;BME280;62866;55.776;37.496;2023-07-28T11:48:02;98485.84;;;21.25;99.66
54806;BME280;62866;55.776;37.496;2023-07-28T11:50:30;98502.50;;;21.42;99.76
54806;BME280;62866;55.776;37.496;2023-07-28T11:52:59;98487.69;;;21.53;100.00
54806;BME280;62866;55.776;37.496;2023-07-28T11:55:25;98490.56;;;21.62;100.00
54806;BME280;62866;55.776;37.496;2023-07-28T11:57:52;98504.88;;;21.68;99.89
54806;BME280;62866;55.776;37.496;2023-07-28T12:00:17;98514.38;;;21.70;99.55
54806;BME280;62866;55.776;37.496;2023-07-28T12:02:43;98513.44;;;21.80;99.45
54806;BME280;62866;55.776;37.496;2023-07-28T12:05:16;98507.25;;;21.98;98.58
54806;BME280;62866;55.776;37.496;2023-07-28T12:07:47;98532.19;;;22.24;97.68
54806;BME280;62866;55.776;37.496;2023-07-28T12:10:13;98542.47;;;22.27;97.13
54806;BME280;62866;55.776;37.496;2023-07-28T12:12:44;98553.97;;;22.05;96.19
54806;BME280;62866;55.776;37.496;2023-07-28T12:15:29;98558.69;;;21.76;95.98
54806;BME280;62866;55.776;37.496;2023-07-28T12:18:15;98564.41;;;21.50;95.18
54806;BME280;62866;55.776;37.496;2023-07-28T12:20:50;98570.13;;;21.25;95.74
54806;BME280;62866;55.776;37.496;2023-07-28T12:23:17;98585.78;;;21.04;95.90
54806;BME280;62866;55.776;37.496;2023-07-28T12:25:44;98580.81;;;20.82;96.20
54806;BME280;62866;55.776;37.496;2023-07-28T12:28:10;98583.34;;;20.69;96.62
54806;BME280;62866;55.776;37.496;2023-07-28T12:30:36;98592.38;;;20.64;97.32
54806;BME280;62866;55.776;37.496;2023-07-28T12:33:03;98608.13;;;20.62;97.13
54806;BME280;62866;55.776;37.496;2023-07-28T12:35:29;98595.91;;;20.65;97.22
54806;BME280;62866;55.776;37.496;2023-07-28T12:38:00;98603.19;;;20.69;96.97
54806;BME280;62866;55.776;37.496;2023-07-28T12:40:29;98600.75;;;20.68;96.90
54806;BME280;62866;55.776;37.496;2023-07-28T12:42:55;98608.88;;;20.68;96.63
54806;BME280;62866;55.776;37.496;2023-07-28T12:45:21;98610.00;;;20.67;96.66
54806;BME280;62866;55.776;37.496;2023-07-28T12:47:47;98617.38;;;20.61;96.63
54806;BME280;62866;55.776;37.496;2023-07-28T12:50:13;98621.25;;;20.50;96.69
54806;BME280;62866;55.776;37.496;2023-07-28T12:52:38;98625.06;;;20.44;97.05